Airport View

Enter AWOS ICAO identifier for current METAR.

ex. KFNL

26 Jan 2020 23:25

Frequency: 128.125

Phone: 276-628-2940

Other Area AWOS: K0A9 - KTRI - KJFZ - KLNP

TAF KTRI 261725Z 2618/2718 26007KT P6SM SCT045 FM270000 VRB03KT P6SM BKN030 FM270600 00000KT 6SM BR OVC018 PROB30 2706/2708 4SM -RA OVC008 FM271100 00000KT 4SM -RA BR OVC008 FM271500 26005KT 5SM -RA BR OVC010